Catano, Puerto Rico
Current Conditions -  °F | °C
As of 10:56 PM on Saturday 20 Dec 2014 (Local Time) from TJSJ Reporting Station
Scattered Clouds Scattered Clouds  
Wind Chill: 78°   Ceiling: Unl
Heat Index: 80°   Visibility: 10mi
Dew Point: 72°   Wind: 7mph
Humidity: 81%   Direction: 90°E
Pressure: 30.05"   Gusts: NA
Location:  18.44°N, 66.11°W
Report Text: TJSJ 210256Z 09006KT 10SM FEW024 SCT100 26/22 A3005 RMK AO2 SLP176 T02560222 50005
Loading
Personal Weather Stations






























Interactive Weather Map New forecast layout! Learn more

10-Day Weather Forecast

Advertisements
Track Severe Weather on mobile